sensor_id;sensor_type;location;lat;lon;timestamp;P1;durP1;ratioP1;P2;durP2;ratioP2
3755;SDS011;1893;52.526;13.360;2023-05-16T00:01:13;11.27;;;10.17;;
3755;SDS011;1893;52.526;13.360;2023-05-16T00:03:40;12.53;;;11.20;;
3755;SDS011;1893;52.526;13.360;2023-05-16T00:06:07;11.80;;;9.40;;
3755;SDS011;1893;52.526;13.360;2023-05-16T00:08:33;10.70;;;9.60;;
3755;SDS011;1893;52.526;13.360;2023-05-16T00:10:59;11.00;;;9.80;;
3755;SDS011;1893;52.526;13.360;2023-05-16T00:13:25;11.70;;;10.60;;
3755;SDS011;1893;52.526;13.360;2023-05-16T00:15:52;13.47;;;11.87;;
3755;SDS011;1893;52.526;13.360;2023-05-16T00:18:18;12.97;;;11.60;;
3755;SDS011;1893;52.526;13.360;2023-05-16T00:20:46;13.33;;;11.60;;
3755;SDS011;1893;52.526;13.360;2023-05-16T00:23:17;17.30;;;11.50;;
3755;SDS011;1893;52.526;13.360;2023-05-16T00:25:42;13.37;;;11.73;;
3755;SDS011;1893;52.526;13.360;2023-05-16T00:28:09;12.10;;;11.00;;
3755;SDS011;1893;52.526;13.360;2023-05-16T00:30:34;13.43;;;11.90;;
3755;SDS011;1893;52.526;13.360;2023-05-16T00:33:00;12.33;;;11.23;;
3755;SDS011;1893;52.526;13.360;2023-05-16T00:35:26;13.90;;;11.33;;
3755;SDS011;1893;52.526;13.360;2023-05-16T00:37:52;12.67;;;11.40;;
3755;SDS011;1893;52.526;13.360;2023-05-16T00:40:17;16.10;;;11.37;;
3755;SDS011;1893;52.526;13.360;2023-05-16T00:42:43;13.87;;;11.00;;
3755;SDS011;1893;52.526;13.360;2023-05-16T00:45:09;14.07;;;12.53;;
3755;SDS011;1893;52.526;13.360;2023-05-16T00:47:35;15.10;;;12.30;;
3755;SDS011;1893;52.526;13.360;2023-05-16T00:50:01;14.67;;;12.77;;
3755;SDS011;1893;52.526;13.360;2023-05-16T00:52:28;15.93;;;11.90;;
3755;SDS011;1893;52.526;13.360;2023-05-16T00:54:54;16.23;;;12.23;;
3755;SDS011;1893;52.526;13.360;2023-05-16T00:57:21;13.83;;;11.27;;
3755;SDS011;1893;52.526;13.360;2023-05-16T00:59:46;14.40;;;12.70;;
3755;SDS011;1893;52.526;13.360;2023-05-16T01:02:12;17.53;;;14.27;;
3755;SDS011;1893;52.526;13.360;2023-05-16T01:04:38;16.33;;;14.40;;
3755;SDS011;1893;52.526;13.360;2023-05-16T01:07:04;18.50;;;14.30;;
3755;SDS011;1893;52.526;13.360;2023-05-16T01:09:30;17.60;;;15.00;;
3755;SDS011;1893;52.526;13.360;2023-05-16T01:27:46;21.47;;;16.93;;
3755;SDS011;1893;52.526;13.360;2023-05-16T01:30:13;23.07;;;16.83;;
3755;SDS011;1893;52.526;13.360;2023-05-16T01:32:41;26.00;;;16.97;;
3755;SDS011;1893;52.526;13.360;2023-05-16T01:35:07;20.40;;;16.10;;
3755;SDS011;1893;52.526;13.360;2023-05-16T01:37:35;20.50;;;16.50;;
3755;SDS011;1893;52.526;13.360;2023-05-16T01:40:32;20.93;;;16.10;;
3755;SDS011;1893;52.526;13.360;2023-05-16T01:43:24;24.53;;;16.23;;
3755;SDS011;1893;52.526;13.360;2023-05-16T01:46:09;22.07;;;15.33;;
3755;SDS011;1893;52.526;13.360;2023-05-16T01:48:39;20.13;;;14.70;;
3755;SDS011;1893;52.526;13.360;2023-05-16T01:51:30;18.33;;;15.33;;
3755;SDS011;1893;52.526;13.360;2023-05-16T01:54:02;22.80;;;14.80;;
3755;SDS011;1893;52.526;13.360;2023-05-16T01:56:33;20.00;;;14.80;;
3755;SDS011;1893;52.526;13.360;2023-05-16T01:59:01;19.53;;;15.70;;
3755;SDS011;1893;52.526;13.360;2023-05-16T02:01:26;20.50;;;16.07;;
3755;SDS011;1893;52.526;13.360;2023-05-16T02:03:54;20.93;;;14.80;;
3755;SDS011;1893;52.526;13.360;2023-05-16T02:06:20;20.30;;;15.20;;
3755;SDS011;1893;52.526;13.360;2023-05-16T02:08:46;20.60;;;14.93;;
3755;SDS011;1893;52.526;13.360;2023-05-16T02:11:13;18.23;;;15.70;;
3755;SDS011;1893;52.526;13.360;2023-05-16T02:13:38;25.33;;;15.57;;
3755;SDS011;1893;52.526;13.360;2023-05-16T02:16:04;21.80;;;16.63;;
3755;SDS011;1893;52.526;13.360;2023-05-16T02:18:29;25.67;;;16.67;;
3755;SDS011;1893;52.526;13.360;2023-05-16T02:20:55;24.97;;;15.07;;
3755;SDS011;1893;52.526;13.360;2023-05-16T02:23:21;19.40;;;16.17;;
3755;SDS011;1893;52.526;13.360;2023-05-16T02:25:47;23.70;;;16.10;;
3755;SDS011;1893;52.526;13.360;2023-05-16T02:28:12;17.43;;;13.33;;
3755;SDS011;1893;52.526;13.360;2023-05-16T02:30:38;19.30;;;15.67;;
3755;SDS011;1893;52.526;13.360;2023-05-16T02:33:04;22.43;;;16.53;;
3755;SDS011;1893;52.526;13.360;2023-05-16T02:35:29;19.70;;;16.30;;
3755;SDS011;1893;52.526;13.360;2023-05-16T02:37:55;24.53;;;16.00;;
3755;SDS011;1893;52.526;13.360;2023-05-16T02:40:21;21.77;;;16.20;;
3755;SDS011;1893;52.526;13.360;2023-05-16T02:45:49;23.07;;;15.30;;
3755;SDS011;1893;52.526;13.360;2023-05-16T02:48:15;28.47;;;17.90;;
3755;SDS011;1893;52.526;13.360;2023-05-16T02:50:40;22.40;;;16.27;;
3755;SDS011;1893;52.526;13.360;2023-05-16T02:53:06;19.07;;;16.83;;
3755;SDS011;1893;52.526;13.360;2023-05-16T02:55:32;21.47;;;15.20;;
3755;SDS011;1893;52.526;13.360;2023-05-16T02:57:58;21.57;;;15.47;;
3755;SDS011;1893;52.526;13.360;2023-05-16T03:00:23;21.43;;;15.27;;
3755;SDS011;1893;52.526;13.360;2023-05-16T03:02:49;23.97;;;16.37;;
3755;SDS011;1893;52.526;13.360;2023-05-16T03:05:17;17.50;;;15.30;;
3755;SDS011;1893;52.526;13.360;2023-05-16T03:07:43;23.97;;;15.57;;
3755;SDS011;1893;52.526;13.360;2023-05-16T03:10:09;20.60;;;15.93;;
3755;SDS011;1893;52.526;13.360;2023-05-16T03:12:35;21.03;;;15.87;;
3755;SDS011;1893;52.526;13.360;2023-05-16T03:15:00;19.97;;;15.83;;
3755;SDS011;1893;52.526;13.360;2023-05-16T03:17:26;22.20;;;15.90;;
3755;SDS011;1893;52.526;13.360;2023-05-16T03:19:52;22.30;;;16.90;;
3755;SDS011;1893;52.526;13.360;2023-05-16T03:22:18;21.50;;;16.30;;
3755;SDS011;1893;52.526;13.360;2023-05-16T03:24:43;19.00;;;15.77;;
3755;SDS011;1893;52.526;13.360;2023-05-16T03:27:09;25.53;;;17.90;;
3755;SDS011;1893;52.526;13.360;2023-05-16T03:29:35;21.23;;;16.23;;
3755;SDS011;1893;52.526;13.360;2023-05-16T03:32:01;21.93;;;17.37;;
3755;SDS011;1893;52.526;13.360;2023-05-16T03:34:26;23.80;;;18.27;;
3755;SDS011;1893;52.526;13.360;2023-05-16T03:36:52;24.73;;;18.13;;
3755;SDS011;1893;52.526;13.360;2023-05-16T03:39:18;23.63;;;17.20;;
3755;SDS011;1893;52.526;13.360;2023-05-16T03:41:43;26.33;;;17.70;;
3755;SDS011;1893;52.526;13.360;2023-05-16T03:44:09;26.80;;;18.17;;
3755;SDS011;1893;52.526;13.360;2023-05-16T03:46:35;26.50;;;17.77;;
3755;SDS011;1893;52.526;13.360;2023-05-16T03:49:01;26.57;;;18.00;;
3755;SDS011;1893;52.526;13.360;2023-05-16T03:51:26;27.20;;;18.23;;
3755;SDS011;1893;52.526;13.360;2023-05-16T03:53:52;29.30;;;19.20;;
3755;SDS011;1893;52.526;13.360;2023-05-16T03:56:18;24.20;;;17.43;;
3755;SDS011;1893;52.526;13.360;2023-05-16T03:58:46;26.00;;;18.93;;
3755;SDS011;1893;52.526;13.360;2023-05-16T04:01:11;28.03;;;19.80;;
3755;SDS011;1893;52.526;13.360;2023-05-16T04:03:37;35.03;;;18.90;;
3755;SDS011;1893;52.526;13.360;2023-05-16T04:06:03;22.13;;;18.33;;
3755;SDS011;1893;52.526;13.360;2023-05-16T04:08:29;26.97;;;17.97;;
3755;SDS011;1893;52.526;13.360;2023-05-16T04:10:55;27.07;;;17.40;;
3755;SDS011;1893;52.526;13.360;2023-05-16T04:13:21;24.50;;;17.60;;
3755;SDS011;1893;52.526;13.360;2023-05-16T04:15:46;29.50;;;19.47;;
3755;SDS011;1893;52.526;13.360;2023-05-16T04:18:12;24.17;;;18.23;;
3755;SDS011;1893;52.526;13.360;2023-05-16T04:20:38;24.07;;;17.97;;
3755;SDS011;1893;52.526;13.360;2023-05-16T04:23:03;25.03;;;17.50;;
3755;SDS011;1893;52.526;13.360;2023-05-16T04:25:29;31.63;;;19.50;;
3755;SDS011;1893;52.526;13.360;2023-05-16T04:27:55;25.03;;;18.00;;
3755;SDS011;1893;52.526;13.360;2023-05-16T04:30:21;26.57;;;17.97;;
3755;SDS011;1893;52.526;13.360;2023-05-16T04:32:46;25.60;;;18.17;;
3755;SDS011;1893;52.526;13.360;2023-05-16T04:35:12;26.90;;;19.07;;
3755;SDS011;1893;52.526;13.360;2023-05-16T04:37:38;23.73;;;16.87;;
3755;SDS011;1893;52.526;13.360;2023-05-16T04:40:04;23.87;;;18.00;;
3755;SDS011;1893;52.526;13.360;2023-05-16T04:42:31;23.10;;;17.93;;
3755;SDS011;1893;52.526;13.360;2023-05-16T04:44:57;28.47;;;18.27;;
3755;SDS011;1893;52.526;13.360;2023-05-16T04:47:23;29.00;;;19.30;;
3755;SDS011;1893;52.526;13.360;2023-05-16T04:49:48;26.43;;;18.63;;
3755;SDS011;1893;52.526;13.360;2023-05-16T04:52:14;33.80;;;19.40;;
3755;SDS011;1893;52.526;13.360;2023-05-16T04:54:39;27.50;;;19.60;;
3755;SDS011;1893;52.526;13.360;2023-05-16T04:57:05;31.87;;;18.83;;
3755;SDS011;1893;52.526;13.360;2023-05-16T04:59:31;26.77;;;18.10;;
3755;SDS011;1893;52.526;13.360;2023-05-16T05:01:56;28.20;;;18.47;;
3755;SDS011;1893;52.526;13.360;2023-05-16T05:04:22;27.47;;;17.93;;
3755;SDS011;1893;52.526;13.360;2023-05-16T05:06:49;30.50;;;19.63;;
3755;SDS011;1893;52.526;13.360;2023-05-16T05:09:14;26.33;;;19.13;;
3755;SDS011;1893;52.526;13.360;2023-05-16T05:11:40;28.00;;;20.43;;
3755;SDS011;1893;52.526;13.360;2023-05-16T05:14:05;24.43;;;18.53;;
3755;SDS011;1893;52.526;13.360;2023-05-16T05:16:31;25.63;;;17.77;;
3755;SDS011;1893;52.526;13.360;2023-05-16T05:18:57;25.00;;;17.23;;
3755;SDS011;1893;52.526;13.360;2023-05-16T05:21:22;27.67;;;17.93;;
3755;SDS011;1893;52.526;13.360;2023-05-16T05:23:49;30.47;;;18.37;;
3755;SDS011;1893;52.526;13.360;2023-05-16T05:26:15;26.40;;;15.53;;
3755;SDS011;1893;52.526;13.360;2023-05-16T05:28:41;27.50;;;17.57;;
3755;SDS011;1893;52.526;13.360;2023-05-16T05:31:07;26.47;;;18.50;;
3755;SDS011;1893;52.526;13.360;2023-05-16T05:33:33;27.63;;;18.73;;
3755;SDS011;1893;52.526;13.360;2023-05-16T05:35:58;23.20;;;16.63;;
3755;SDS011;1893;52.526;13.360;2023-05-16T05:38:24;24.73;;;16.70;;
3755;SDS011;1893;52.526;13.360;2023-05-16T05:40:50;22.00;;;17.13;;
3755;SDS011;1893;52.526;13.360;2023-05-16T05:43:15;27.83;;;18.33;;
3755;SDS011;1893;52.526;13.360;2023-05-16T05:45:41;27.07;;;18.80;;
3755;SDS011;1893;52.526;13.360;2023-05-16T05:48:07;26.33;;;17.60;;
3755;SDS011;1893;52.526;13.360;2023-05-16T05:50:34;19.23;;;15.73;;
3755;SDS011;1893;52.526;13.360;2023-05-16T05:53:00;21.00;;;14.57;;
3755;SDS011;1893;52.526;13.360;2023-05-16T05:55:26;16.47;;;12.53;;
3755;SDS011;1893;52.526;13.360;2023-05-16T05:57:52;25.83;;;13.97;;
3755;SDS011;1893;52.526;13.360;2023-05-16T06:00:17;16.90;;;12.87;;
3755;SDS011;1893;52.526;13.360;2023-05-16T06:02:43;17.27;;;13.90;;
3755;SDS011;1893;52.526;13.360;2023-05-16T06:05:09;22.83;;;14.33;;
3755;SDS011;1893;52.526;13.360;2023-05-16T06:07:34;15.60;;;11.50;;
3755;SDS011;1893;52.526;13.360;2023-05-16T06:10:00;21.27;;;13.00;;
3755;SDS011;1893;52.526;13.360;2023-05-16T06:12:28;16.20;;;11.90;;
3755;SDS011;1893;52.526;13.360;2023-05-16T06:14:54;19.17;;;12.47;;
3755;SDS011;1893;52.526;13.360;2023-05-16T06:17:20;17.40;;;12.90;;
3755;SDS011;1893;52.526;13.360;2023-05-16T06:19:45;18.00;;;12.10;;
3755;SDS011;1893;52.526;13.360;2023-05-16T06:22:11;16.43;;;12.40;;
3755;SDS011;1893;52.526;13.360;2023-05-16T06:24:36;18.50;;;13.30;;
3755;SDS011;1893;52.526;13.360;2023-05-16T06:27:02;15.00;;;11.50;;
3755;SDS011;1893;52.526;13.360;2023-05-16T06:29:28;15.80;;;11.50;;
3755;SDS011;1893;52.526;13.360;2023-05-16T06:31:53;13.40;;;10.77;;
3755;SDS011;1893;52.526;13.360;2023-05-16T06:34:19;15.13;;;10.33;;
3755;SDS011;1893;52.526;13.360;2023-05-16T06:36:51;15.30;;;10.77;;
3755;SDS011;1893;52.526;13.360;2023-05-16T06:39:17;15.03;;;9.57;;
3755;SDS011;1893;52.526;13.360;2023-05-16T06:41:42;12.20;;;9.60;;
3755;SDS011;1893;52.526;13.360;2023-05-16T06:44:08;15.23;;;10.20;;
3755;SDS011;1893;52.526;13.360;2023-05-16T06:46:33;15.13;;;10.70;;
3755;SDS011;1893;52.526;13.360;2023-05-16T06:48:59;12.13;;;8.97;;
3755;SDS011;1893;52.526;13.360;2023-05-16T06:51:25;13.73;;;9.83;;
3755;SDS011;1893;52.526;13.360;2023-05-16T06:53:50;14.40;;;8.93;;
3755;SDS011;1893;52.526;13.360;2023-05-16T06:56:16;14.87;;;9.80;;
3755;SDS011;1893;52.526;13.360;2023-05-16T06:58:41;15.90;;;9.70;;
3755;SDS011;1893;52.526;13.360;2023-05-16T07:01:07;12.90;;;8.00;;
3755;SDS011;1893;52.526;13.360;2023-05-16T07:03:33;10.43;;;8.40;;
3755;SDS011;1893;52.526;13.360;2023-05-16T07:05:58;10.70;;;7.50;;
3755;SDS011;1893;52.526;13.360;2023-05-16T07:08:24;11.23;;;8.10;;
3755;SDS011;1893;52.526;13.360;2023-05-16T07:10:50;10.50;;;7.83;;
3755;SDS011;1893;52.526;13.360;2023-05-16T07:13:15;11.80;;;7.73;;
3755;SDS011;1893;52.526;13.360;2023-05-16T07:15:41;8.30;;;7.40;;
3755;SDS011;1893;52.526;13.360;2023-05-16T07:18:07;8.70;;;6.30;;
3755;SDS011;1893;52.526;13.360;2023-05-16T07:20:32;8.77;;;6.40;;
3755;SDS011;1893;52.526;13.360;2023-05-16T07:22:58;7.80;;;6.27;;
3755;SDS011;1893;52.526;13.360;2023-05-16T07:25:24;9.00;;;5.93;;
3755;SDS011;1893;52.526;13.360;2023-05-16T07:27:50;7.87;;;6.27;;
3755;SDS011;1893;52.526;13.360;2023-05-16T07:30:15;6.50;;;5.37;;
3755;SDS011;1893;52.526;13.360;2023-05-16T07:32:41;10.93;;;5.60;;
3755;SDS011;1893;52.526;13.360;2023-05-16T07:35:07;11.73;;;5.97;;
3755;SDS011;1893;52.526;13.360;2023-05-16T07:37:33;10.60;;;5.20;;
3755;SDS011;1893;52.526;13.360;2023-05-16T07:40:00;10.17;;;5.93;;
3755;SDS011;1893;52.526;13.360;2023-05-16T07:42:26;10.67;;;5.40;;
3755;SDS011;1893;52.526;13.360;2023-05-16T07:44:51;7.90;;;6.07;;
3755;SDS011;1893;52.526;13.360;2023-05-16T07:47:17;6.00;;;5.40;;
3755;SDS011;1893;52.526;13.360;2023-05-16T07:49:42;7.90;;;6.10;;
3755;SDS011;1893;52.526;13.360;2023-05-16T07:52:08;5.37;;;4.87;;
3755;SDS011;1893;52.526;13.360;2023-05-16T07:54:34;5.90;;;4.40;;
3755;SDS011;1893;52.526;13.360;2023-05-16T07:57:00;12.33;;;5.30;;
3755;SDS011;1893;52.526;13.360;2023-05-16T07:59:26;6.13;;;4.40;;
3755;SDS011;1893;52.526;13.360;2023-05-16T08:01:52;6.00;;;3.50;;
3755;SDS011;1893;52.526;13.360;2023-05-16T08:04:19;6.30;;;4.53;;
3755;SDS011;1893;52.526;13.360;2023-05-16T08:06:45;7.13;;;3.93;;
3755;SDS011;1893;52.526;13.360;2023-05-16T08:09:11;4.33;;;4.00;;
3755;SDS011;1893;52.526;13.360;2023-05-16T08:11:36;4.97;;;3.43;;
3755;SDS011;1893;52.526;13.360;2023-05-16T08:14:03;6.47;;;4.70;;
3755;SDS011;1893;52.526;13.360;2023-05-16T08:16:29;6.50;;;3.40;;
3755;SDS011;1893;52.526;13.360;2023-05-16T08:18:55;4.67;;;3.83;;
3755;SDS011;1893;52.526;13.360;2023-05-16T08:21:20;8.30;;;3.73;;
3755;SDS011;1893;52.526;13.360;2023-05-16T08:23:46;4.63;;;3.60;;
3755;SDS011;1893;52.526;13.360;2023-05-16T08:26:11;4.43;;;4.03;;
3755;SDS011;1893;52.526;13.360;2023-05-16T08:28:37;3.40;;;3.10;;
3755;SDS011;1893;52.526;13.360;2023-05-16T08:31:02;5.60;;;3.30;;
3755;SDS011;1893;52.526;13.360;2023-05-16T08:33:28;6.60;;;3.30;;
3755;SDS011;1893;52.526;13.360;2023-05-16T08:35:54;5.43;;;2.87;;
3755;SDS011;1893;52.526;13.360;2023-05-16T08:38:19;3.80;;;3.00;;
3755;SDS011;1893;52.526;13.360;2023-05-16T08:40:45;4.37;;;2.47;;
3755;SDS011;1893;52.526;13.360;2023-05-16T08:43:11;3.57;;;2.53;;
3755;SDS011;1893;52.526;13.360;2023-05-16T08:45:37;5.83;;;2.70;;
3755;SDS011;1893;52.526;13.360;2023-05-16T08:48:04;2.80;;;2.50;;
3755;SDS011;1893;52.526;13.360;2023-05-16T08:50:32;4.13;;;2.40;;
3755;SDS011;1893;52.526;13.360;2023-05-16T08:53:01;5.03;;;2.40;;
3755;SDS011;1893;52.526;13.360;2023-05-16T08:55:31;4.67;;;2.50;;
3755;SDS011;1893;52.526;13.360;2023-05-16T08:57:57;3.23;;;2.40;;
3755;SDS011;1893;52.526;13.360;2023-05-16T09:00:24;6.07;;;1.80;;
3755;SDS011;1893;52.526;13.360;2023-05-16T09:02:51;3.00;;;2.00;;
3755;SDS011;1893;52.526;13.360;2023-05-16T09:05:17;1.87;;;1.60;;
3755;SDS011;1893;52.526;13.360;2023-05-16T09:07:44;2.13;;;1.80;;
3755;SDS011;1893;52.526;13.360;2023-05-16T09:10:10;3.83;;;2.00;;
3755;SDS011;1893;52.526;13.360;2023-05-16T09:12:37;2.53;;;2.03;;
3755;SDS011;1893;52.526;13.360;2023-05-16T09:15:06;3.57;;;1.97;;
3755;SDS011;1893;52.526;13.360;2023-05-16T09:17:36;2.90;;;2.07;;
3755;SDS011;1893;52.526;13.360;2023-05-16T09:20:13;3.83;;;2.27;;
3755;SDS011;1893;52.526;13.360;2023-05-16T09:22:49;2.30;;;2.10;;
3755;SDS011;1893;52.526;13.360;2023-05-16T09:25:20;5.30;;;1.83;;
3755;SDS011;1893;52.526;13.360;2023-05-16T09:27:47;3.13;;;2.10;;
3755;SDS011;1893;52.526;13.360;2023-05-16T09:30:17;6.57;;;2.43;;
3755;SDS011;1893;52.526;13.360;2023-05-16T09:32:53;2.63;;;1.90;;
3755;SDS011;1893;52.526;13.360;2023-05-16T09:35:19;2.80;;;1.80;;
3755;SDS011;1893;52.526;13.360;2023-05-16T09:37:45;4.77;;;2.33;;
3755;SDS011;1893;52.526;13.360;2023-05-16T09:40:12;4.60;;;1.60;;
3755;SDS011;1893;52.526;13.360;2023-05-16T09:42:39;3.67;;;1.63;;
3755;SDS011;1893;52.526;13.360;2023-05-16T09:45:04;2.17;;;1.40;;
3755;SDS011;1893;52.526;13.360;2023-05-16T09:47:30;2.53;;;1.70;;
3755;SDS011;1893;52.526;13.360;2023-05-16T09:49:56;4.10;;;1.60;;
3755;SDS011;1893;52.526;13.360;2023-05-16T09:52:25;5.47;;;2.03;;
3755;SDS011;1893;52.526;13.360;2023-05-16T09:54:51;4.53;;;2.60;;
3755;SDS011;1893;52.526;13.360;2023-05-16T09:57:19;4.50;;;2.00;;
3755;SDS011;1893;52.526;13.360;2023-05-16T09:59:45;3.40;;;2.07;;
3755;SDS011;1893;52.526;13.360;2023-05-16T10:02:12;2.73;;;1.90;;
3755;SDS011;1893;52.526;13.360;2023-05-16T10:04:38;3.20;;;2.30;;
3755;SDS011;1893;52.526;13.360;2023-05-16T10:07:04;7.30;;;2.40;;
3755;SDS011;1893;52.526;13.360;2023-05-16T10:09:31;6.73;;;2.27;;
3755;SDS011;1893;52.526;13.360;2023-05-16T10:11:57;4.73;;;2.20;;
3755;SDS011;1893;52.526;13.360;2023-05-16T10:14:29;3.00;;;2.00;;
3755;SDS011;1893;52.526;13.360;2023-05-16T10:16:59;4.53;;;2.40;;
3755;SDS011;1893;52.526;13.360;2023-05-16T10:19:27;9.47;;;2.00;;
3755;SDS011;1893;52.526;13.360;2023-05-16T10:21:57;6.80;;;3.00;;
3755;SDS011;1893;52.526;13.360;2023-05-16T10:24:28;6.53;;;2.87;;
3755;SDS011;1893;52.526;13.360;2023-05-16T10:27:01;3.87;;;2.77;;
3755;SDS011;1893;52.526;13.360;2023-05-16T10:29:28;7.20;;;2.60;;
3755;SDS011;1893;52.526;13.360;2023-05-16T10:31:54;3.93;;;2.67;;
3755;SDS011;1893;52.526;13.360;2023-05-16T10:34:22;3.90;;;2.60;;
3755;SDS011;1893;52.526;13.360;2023-05-16T10:36:47;8.23;;;2.80;;
3755;SDS011;1893;52.526;13.360;2023-05-16T10:39:14;7.97;;;3.00;;
3755;SDS011;1893;52.526;13.360;2023-05-16T10:41:40;10.07;;;3.07;;
3755;SDS011;1893;52.526;13.360;2023-05-16T10:44:11;5.83;;;2.50;;
3755;SDS011;1893;52.526;13.360;2023-05-16T10:46:41;7.87;;;2.80;;
3755;SDS011;1893;52.526;13.360;2023-05-16T10:59:40;7.70;;;2.60;;
3755;SDS011;1893;52.526;13.360;2023-05-16T11:05:06;10.17;;;3.17;;
3755;SDS011;1893;52.526;13.360;2023-05-16T11:07:37;5.60;;;2.33;;
3755;SDS011;1893;52.526;13.360;2023-05-16T11:10:10;6.87;;;2.20;;
3755;SDS011;1893;52.526;13.360;2023-05-16T11:12:43;12.73;;;2.30;;
3755;SDS011;1893;52.526;13.360;2023-05-16T11:15:23;8.40;;;2.03;;
3755;SDS011;1893;52.526;13.360;2023-05-16T11:18:02;7.50;;;2.17;;
3755;SDS011;1893;52.526;13.360;2023-05-16T11:20:30;11.83;;;2.20;;
3755;SDS011;1893;52.526;13.360;2023-05-16T11:25:58;13.57;;;2.63;;
3755;SDS011;1893;52.526;13.360;2023-05-16T11:28:25;10.40;;;2.50;;
3755;SDS011;1893;52.526;13.360;2023-05-16T11:30:53;10.00;;;2.17;;
3755;SDS011;1893;52.526;13.360;2023-05-16T11:33:21;7.90;;;2.60;;
3755;SDS011;1893;52.526;13.360;2023-05-16T11:36:01;6.50;;;2.20;;
3755;SDS011;1893;52.526;13.360;2023-05-16T11:38:29;5.33;;;2.40;;
3755;SDS011;1893;52.526;13.360;2023-05-16T11:41:05;11.57;;;2.53;;
3755;SDS011;1893;52.526;13.360;2023-05-16T11:43:39;7.20;;;2.77;;
3755;SDS011;1893;52.526;13.360;2023-05-16T11:46:05;6.20;;;2.03;;
3755;SDS011;1893;52.526;13.360;2023-05-16T11:48:32;4.97;;;1.97;;
3755;SDS011;1893;52.526;13.360;2023-05-16T11:50:57;6.77;;;2.20;;
3755;SDS011;1893;52.526;13.360;2023-05-16T11:53:23;10.57;;;2.63;;
3755;SDS011;1893;52.526;13.360;2023-05-16T11:55:49;5.13;;;1.83;;
3755;SDS011;1893;52.526;13.360;2023-05-16T11:58:17;6.47;;;1.90;;
3755;SDS011;1893;52.526;13.360;2023-05-16T12:00:47;7.50;;;2.10;;
3755;SDS011;1893;52.526;13.360;2023-05-16T12:03:14;6.17;;;1.83;;
3755;SDS011;1893;52.526;13.360;2023-05-16T12:05:48;5.60;;;2.00;;
3755;SDS011;1893;52.526;13.360;2023-05-16T12:08:17;7.63;;;2.33;;
3755;SDS011;1893;52.526;13.360;2023-05-16T12:10:45;5.20;;;1.97;;
3755;SDS011;1893;52.526;13.360;2023-05-16T12:13:13;7.17;;;2.87;;
3755;SDS011;1893;52.526;13.360;2023-05-16T12:15:39;6.73;;;2.30;;
3755;SDS011;1893;52.526;13.360;2023-05-16T12:18:05;9.03;;;1.93;;
3755;SDS011;1893;52.526;13.360;2023-05-16T12:20:31;4.20;;;1.70;;
3755;SDS011;1893;52.526;13.360;2023-05-16T12:22:57;6.13;;;2.13;;
3755;SDS011;1893;52.526;13.360;2023-05-16T12:27:52;5.97;;;1.83;;
3755;SDS011;1893;52.526;13.360;2023-05-16T12:30:21;15.20;;;1.40;;
3755;SDS011;1893;52.526;13.360;2023-05-16T12:32:51;5.17;;;1.63;;
3755;SDS011;1893;52.526;13.360;2023-05-16T12:35:32;2.93;;;1.93;;
3755;SDS011;1893;52.526;13.360;2023-05-16T12:37:59;6.07;;;1.87;;
3755;SDS011;1893;52.526;13.360;2023-05-16T12:40:28;4.23;;;1.70;;
3755;SDS011;1893;52.526;13.360;2023-05-16T12:42:54;2.90;;;1.50;;
3755;SDS011;1893;52.526;13.360;2023-05-16T12:45:20;4.53;;;1.73;;
3755;SDS011;1893;52.526;13.360;2023-05-16T12:47:47;9.70;;;2.33;;
3755;SDS011;1893;52.526;13.360;2023-05-16T12:50:14;7.40;;;2.33;;
3755;SDS011;1893;52.526;13.360;2023-05-16T12:52:48;7.80;;;2.60;;
3755;SDS011;1893;52.526;13.360;2023-05-16T12:55:15;5.40;;;1.70;;
3755;SDS011;1893;52.526;13.360;2023-05-16T12:57:42;8.83;;;1.90;;
3755;SDS011;1893;52.526;13.360;2023-05-16T13:00:09;7.70;;;2.00;;
3755;SDS011;1893;52.526;13.360;2023-05-16T13:02:36;7.33;;;1.93;;
3755;SDS011;1893;52.526;13.360;2023-05-16T13:05:02;6.53;;;1.90;;
3755;SDS011;1893;52.526;13.360;2023-05-16T13:07:28;7.67;;;2.20;;
3755;SDS011;1893;52.526;13.360;2023-05-16T13:09:54;7.37;;;1.70;;
3755;SDS011;1893;52.526;13.360;2023-05-16T13:12:20;6.37;;;1.53;;
3755;SDS011;1893;52.526;13.360;2023-05-16T13:14:50;5.53;;;2.03;;
3755;SDS011;1893;52.526;13.360;2023-05-16T13:17:16;7.80;;;2.00;;
3755;SDS011;1893;52.526;13.360;2023-05-16T13:19:42;4.57;;;1.90;;
3755;SDS011;1893;52.526;13.360;2023-05-16T13:22:08;8.10;;;2.30;;
3755;SDS011;1893;52.526;13.360;2023-05-16T13:24:33;8.17;;;2.10;;
3755;SDS011;1893;52.526;13.360;2023-05-16T13:26:59;6.90;;;2.50;;
3755;SDS011;1893;52.526;13.360;2023-05-16T13:29:24;5.27;;;2.07;;
3755;SDS011;1893;52.526;13.360;2023-05-16T13:31:50;6.03;;;1.90;;
3755;SDS011;1893;52.526;13.360;2023-05-16T13:34:16;8.50;;;1.60;;
3755;SDS011;1893;52.526;13.360;2023-05-16T13:36:41;3.07;;;1.50;;
3755;SDS011;1893;52.526;13.360;2023-05-16T13:39:07;7.90;;;1.63;;
3755;SDS011;1893;52.526;13.360;2023-05-16T13:41:33;6.27;;;1.80;;
3755;SDS011;1893;52.526;13.360;2023-05-16T13:44:02;8.50;;;1.63;;
3755;SDS011;1893;52.526;13.360;2023-05-16T13:46:27;6.07;;;1.70;;
3755;SDS011;1893;52.526;13.360;2023-05-16T13:48:53;6.20;;;1.70;;
3755;SDS011;1893;52.526;13.360;2023-05-16T13:51:19;8.10;;;1.53;;
3755;SDS011;1893;52.526;13.360;2023-05-16T13:53:44;5.40;;;1.70;;
3755;SDS011;1893;52.526;13.360;2023-05-16T13:56:10;5.90;;;1.30;;
3755;SDS011;1893;52.526;13.360;2023-05-16T13:58:35;12.27;;;2.20;;
3755;SDS011;1893;52.526;13.360;2023-05-16T14:01:01;3.87;;;1.30;;
3755;SDS011;1893;52.526;13.360;2023-05-16T14:03:27;5.60;;;2.03;;
3755;SDS011;1893;52.526;13.360;2023-05-16T14:05:53;5.03;;;1.10;;
3755;SDS011;1893;52.526;13.360;2023-05-16T14:08:18;4.30;;;1.70;;
3755;SDS011;1893;52.526;13.360;2023-05-16T14:10:44;3.43;;;1.30;;
3755;SDS011;1893;52.526;13.360;2023-05-16T14:13:09;4.63;;;1.93;;
3755;SDS011;1893;52.526;13.360;2023-05-16T14:15:35;11.40;;;2.30;;
3755;SDS011;1893;52.526;13.360;2023-05-16T14:18:01;9.90;;;1.30;;
3755;SDS011;1893;52.526;13.360;2023-05-16T14:20:28;5.47;;;1.60;;
3755;SDS011;1893;52.526;13.360;2023-05-16T14:22:54;6.23;;;1.50;;
3755;SDS011;1893;52.526;13.360;2023-05-16T14:25:20;7.67;;;1.43;;
3755;SDS011;1893;52.526;13.360;2023-05-16T14:27:46;5.70;;;1.60;;
3755;SDS011;1893;52.526;13.360;2023-05-16T14:30:14;12.53;;;2.43;;
3755;SDS011;1893;52.526;13.360;2023-05-16T14:32:40;4.90;;;1.17;;
3755;SDS011;1893;52.526;13.360;2023-05-16T14:35:06;4.70;;;1.30;;
3755;SDS011;1893;52.526;13.360;2023-05-16T14:37:33;4.83;;;1.23;;
3755;SDS011;1893;52.526;13.360;2023-05-16T14:39:59;3.87;;;1.30;;
3755;SDS011;1893;52.526;13.360;2023-05-16T14:42:25;3.60;;;1.20;;
3755;SDS011;1893;52.526;13.360;2023-05-16T14:44:51;3.33;;;1.20;;
3755;SDS011;1893;52.526;13.360;2023-05-16T14:47:23;5.03;;;1.67;;
3755;SDS011;1893;52.526;13.360;2023-05-16T14:49:49;5.33;;;1.20;;
3755;SDS011;1893;52.526;13.360;2023-05-16T14:52:16;2.93;;;1.30;;
3755;SDS011;1893;52.526;13.360;2023-05-16T14:54:42;3.87;;;1.23;;
3755;SDS011;1893;52.526;13.360;2023-05-16T14:57:07;2.60;;;1.10;;
3755;SDS011;1893;52.526;13.360;2023-05-16T14:59:33;2.30;;;1.00;;
3755;SDS011;1893;52.526;13.360;2023-05-16T15:01:59;5.60;;;1.27;;
3755;SDS011;1893;52.526;13.360;2023-05-16T15:04:25;3.33;;;1.07;;
3755;SDS011;1893;52.526;13.360;2023-05-16T15:06:52;2.73;;;1.00;;
3755;SDS011;1893;52.526;13.360;2023-05-16T15:09:17;3.00;;;1.40;;
3755;SDS011;1893;52.526;13.360;2023-05-16T15:11:43;10.30;;;1.37;;
3755;SDS011;1893;52.526;13.360;2023-05-16T15:14:09;3.83;;;1.10;;
3755;SDS011;1893;52.526;13.360;2023-05-16T15:16:35;3.70;;;1.00;;
3755;SDS011;1893;52.526;13.360;2023-05-16T15:19:01;6.27;;;1.10;;
3755;SDS011;1893;52.526;13.360;2023-05-16T15:21:27;3.50;;;1.20;;
3755;SDS011;1893;52.526;13.360;2023-05-16T15:23:52;1.73;;;1.03;;